createdAt,value
2019-02-16T00:00:09.986Z,88.78
2019-02-16T00:01:10.843Z,89.62
2019-02-16T00:02:10.433Z,89.72
2019-02-16T00:03:09.971Z,90.25
2019-02-16T00:04:09.833Z,90.56
2019-02-16T00:05:09.819Z,90.45
2019-02-16T00:06:09.760Z,90.50
2019-02-16T00:07:09.751Z,90.39
2019-02-16T00:08:10.244Z,91.12
2019-02-16T00:09:09.651Z,90.70
2019-02-16T00:10:09.620Z,91.02
2019-02-16T00:11:09.577Z,91.12
2019-02-16T00:12:09.568Z,91.22
2019-02-16T00:13:09.514Z,90.45
2019-02-16T00:14:09.495Z,90.91
2019-02-16T00:15:09.441Z,90.91
2019-02-16T00:16:09.404Z,90.50
2019-02-16T00:17:09.386Z,90.91
2019-02-16T00:18:09.328Z,91.43
2019-02-16T00:19:09.295Z,91.85
2019-02-16T00:20:09.259Z,91.85
2019-02-16T00:21:09.226Z,91.85
2019-02-16T00:22:09.285Z,91.75
2019-02-16T00:23:09.153Z,91.64
2019-02-16T00:24:09.746Z,91.75
2019-02-16T00:25:09.081Z,91.43
2019-02-16T00:26:09.041Z,91.02
2019-02-16T00:27:09.279Z,91.12
2019-02-16T00:28:08.975Z,91.27
2019-02-16T00:29:08.934Z,90.91
2019-02-16T00:30:08.902Z,90.81
2019-02-16T00:31:08.873Z,90.70
2019-02-16T00:32:08.856Z,90.64
2019-02-16T00:33:08.800Z,90.53
2019-02-16T00:34:08.757Z,90.85
2019-02-16T00:35:08.718Z,91.06
2019-02-16T00:36:08.688Z,90.89
2019-02-16T00:37:08.658Z,90.47
2019-02-16T00:38:08.633Z,90.89
2019-02-16T00:39:08.580Z,90.78
2019-02-16T00:40:09.249Z,91.46
2019-02-16T00:41:08.549Z,91.98
2019-02-16T00:42:08.463Z,92.50
2019-02-16T00:43:08.466Z,92.35
2019-02-16T00:44:08.400Z,91.87
2019-02-16T00:45:08.357Z,91.87
2019-02-16T00:46:09.246Z,91.87
2019-02-16T00:47:08.291Z,92.50
2019-02-16T00:48:08.274Z,91.98
2019-02-16T00:49:08.215Z,92.29
2019-02-16T00:50:08.751Z,92.29
2019-02-16T00:51:13.455Z,92.65
2019-02-16T00:52:08.111Z,92.75
2019-02-16T00:53:08.108Z,93.48
2019-02-16T00:54:10.748Z,93.48
2019-02-16T00:55:08.654Z,92.65
2019-02-16T00:56:08.752Z,92.85
2019-02-16T00:57:07.927Z,93.70
2019-02-16T00:58:07.911Z,93.48
2019-02-16T00:59:07.854Z,93.48
2019-02-16T01:00:07.822Z,93.86
2019-02-16T01:01:07.789Z,93.96
2019-02-16T01:02:07.743Z,94.07
2019-02-16T01:03:07.734Z,93.65
2019-02-16T01:04:07.676Z,93.44
2019-02-16T01:05:07.635Z,93.86
2019-02-16T01:06:07.626Z,93.44
2019-02-16T01:07:07.592Z,93.76
2019-02-16T01:08:07.551Z,93.33
2019-02-16T01:09:07.490Z,93.23
2019-02-16T01:10:07.458Z,93.48
2019-02-16T01:11:07.415Z,93.54
2019-02-16T01:12:08.246Z,93.65
2019-02-16T01:13:07.375Z,93.33
2019-02-16T01:14:08.249Z,93.23
2019-02-16T01:15:07.275Z,93.23
2019-02-16T01:16:07.243Z,93.54
2019-02-16T01:17:07.203Z,93.44
2019-02-16T01:18:09.091Z,93.65
2019-02-16T01:19:07.133Z,93.44
2019-02-16T01:20:07.096Z,93.02
2019-02-16T01:21:09.155Z,93.65
2019-02-16T01:22:07.751Z,92.82
2019-02-16T01:23:07.006Z,92.71
2019-02-16T01:24:07.753Z,92.92
2019-02-16T01:25:06.919Z,93.13
2019-02-16T01:26:07.752Z,93.44
2019-02-16T01:27:06.840Z,93.59
2019-02-16T01:28:06.824Z,93.59
2019-02-16T01:29:06.766Z,92.85
2019-02-16T01:30:07.253Z,93.63
2019-02-16T01:31:07.247Z,93.27
2019-02-16T01:32:07.250Z,93.70
2019-02-16T01:33:06.791Z,93.65
2019-02-16T01:34:07.267Z,93.65
2019-02-16T01:35:09.280Z,93.48
2019-02-16T01:36:06.513Z,93.70
2019-02-16T01:37:06.506Z,93.54
2019-02-16T01:38:06.465Z,93.59
2019-02-16T01:39:06.446Z,93.90
2019-02-16T01:40:06.437Z,93.48
2019-02-16T01:41:07.277Z,93.44
2019-02-16T01:42:07.321Z,93.02
2019-02-16T01:43:10.658Z,93.17
2019-02-16T01:44:06.764Z,92.82
2019-02-16T01:45:06.183Z,93.17
2019-02-16T01:46:06.752Z,93.27
2019-02-16T01:47:06.130Z,93.33
2019-02-16T01:48:06.108Z,92.96
2019-02-16T01:49:06.039Z,93.70
2019-02-16T01:50:06.757Z,93.48
2019-02-16T01:51:06.757Z,93.38
2019-02-16T01:52:06.751Z,93.27
2019-02-16T01:53:05.949Z,93.70
2019-02-16T01:54:05.856Z,94.01
2019-02-16T01:55:05.819Z,93.59
2019-02-16T01:56:06.766Z,93.38
2019-02-16T01:57:06.251Z,93.70
2019-02-16T01:58:05.713Z,93.48
2019-02-16T01:59:05.698Z,93.42
2019-02-16T02:00:05.642Z,93.42
2019-02-16T02:01:05.603Z,93.52
2019-02-16T02:02:06.318Z,94.05
2019-02-16T02:03:06.252Z,93.80
2019-02-16T02:04:05.784Z,93.59
2019-02-16T02:05:06.251Z,93.52
2019-02-16T02:06:06.251Z,94.01
2019-02-16T02:07:05.382Z,94.11
2019-02-16T02:08:05.349Z,93.95
2019-02-16T02:09:05.342Z,94.15
2019-02-16T02:10:05.277Z,94.15
2019-02-16T02:11:05.751Z,93.95
2019-02-16T02:12:05.210Z,94.11
2019-02-16T02:13:05.760Z,94.21
2019-02-16T02:14:05.787Z,94.11
2019-02-16T02:15:05.093Z,94.70
2019-02-16T02:16:05.057Z,94.17
2019-02-16T02:17:05.753Z,93.54
2019-02-16T02:18:05.005Z,93.54
2019-02-16T02:19:04.979Z,93.44
2019-02-16T02:20:04.910Z,93.13
2019-02-16T02:21:04.878Z,93.23
2019-02-16T02:22:05.754Z,92.60
2019-02-16T02:23:04.804Z,92.50
2019-02-16T02:24:04.788Z,92.31
2019-02-16T02:25:05.253Z,91.72
2019-02-16T02:26:04.698Z,92.00
2019-02-16T02:27:04.823Z,92.00
2019-02-16T02:28:05.252Z,91.41
2019-02-16T02:29:04.607Z,91.00
2019-02-16T02:30:05.253Z,91.00
2019-02-16T02:31:05.254Z,90.89
2019-02-16T02:32:04.481Z,90.58
2019-02-16T02:33:05.254Z,91.56
2019-02-16T02:34:04.803Z,91.56
2019-02-16T02:35:05.261Z,91.25
2019-02-16T02:36:05.255Z,91.03
2019-02-16T02:37:05.255Z,91.03
2019-02-16T02:38:04.265Z,91.35
2019-02-16T02:39:04.244Z,92.29
2019-02-16T02:40:04.332Z,91.81
2019-02-16T02:41:04.756Z,91.91
2019-02-16T02:42:04.140Z,91.71
2019-02-16T02:43:04.867Z,92.02
2019-02-16T02:44:04.063Z,92.13
2019-02-16T02:45:04.766Z,92.38
2019-02-16T02:46:04.758Z,92.48
2019-02-16T02:47:03.930Z,92.27
2019-02-16T02:48:04.763Z,92.16
2019-02-16T02:49:04.290Z,93.04
2019-02-16T02:50:04.790Z,93.32
2019-02-16T02:51:03.782Z,92.94
2019-02-16T02:52:04.265Z,93.63
2019-02-16T02:53:04.262Z,93.63
2019-02-16T02:54:04.288Z,92.79
2019-02-16T02:55:03.641Z,93.32
2019-02-16T02:56:05.161Z,93.57
2019-02-16T02:57:04.253Z,93.78
2019-02-16T02:58:04.257Z,93.57
2019-02-16T02:59:03.518Z,93.57
2019-02-16T03:00:03.455Z,93.57
2019-02-16T03:01:03.422Z,93.51
2019-02-16T03:02:03.386Z,93.61
2019-02-16T03:03:04.256Z,93.71
2019-02-16T03:04:03.332Z,93.82
2019-02-16T03:05:03.271Z,94.34
2019-02-16T03:06:03.238Z,93.93
2019-02-16T03:07:03.205Z,94.24
2019-02-16T03:08:03.758Z,94.03
2019-02-16T03:09:03.401Z,94.13
2019-02-16T03:10:03.757Z,94.24
2019-02-16T03:11:03.052Z,94.34
2019-02-16T03:12:03.757Z,94.45
2019-02-16T03:13:02.985Z,94.34
2019-02-16T03:14:02.947Z,94.13
2019-02-16T03:15:03.294Z,94.97
2019-02-16T03:16:02.874Z,94.82
2019-02-16T03:17:02.836Z,95.03
2019-02-16T03:18:02.805Z,95.45
2019-02-16T03:19:02.898Z,95.25
2019-02-16T03:20:02.815Z,95.25
2019-02-16T03:21:02.685Z,94.82
2019-02-16T03:22:03.490Z,95.14
2019-02-16T03:23:03.258Z,94.40
2019-02-16T03:24:03.255Z,94.13
2019-02-16T03:25:02.789Z,94.34
2019-02-16T03:26:02.506Z,94.76
2019-02-16T03:27:03.279Z,94.66
2019-02-16T03:28:02.431Z,94.81
2019-02-16T03:29:02.402Z,94.56
2019-02-16T03:30:02.380Z,94.66
2019-02-16T03:31:03.263Z,94.87
2019-02-16T03:32:03.265Z,95.07
2019-02-16T03:33:02.759Z,95.07
2019-02-16T03:34:04.778Z,95.43
2019-02-16T03:35:02.289Z,95.50
2019-02-16T03:36:02.759Z,95.23
2019-02-16T03:37:02.098Z,95.43
2019-02-16T03:38:02.760Z,95.50
2019-02-16T03:39:02.756Z,95.50
2019-02-16T03:40:02.030Z,95.96
2019-02-16T03:41:02.298Z,95.50
2019-02-16T03:42:01.916Z,96.12
2019-02-16T03:43:02.766Z,96.12
2019-02-16T03:44:02.760Z,95.98
2019-02-16T03:45:01.804Z,96.29
2019-02-16T03:46:01.791Z,96.39
2019-02-16T03:47:01.729Z,96.14
2019-02-16T03:48:02.265Z,95.83
2019-02-16T03:49:02.263Z,95.62
2019-02-16T03:50:02.257Z,95.93
2019-02-16T03:51:01.607Z,95.62
2019-02-16T03:52:01.553Z,95.51
2019-02-16T03:53:02.258Z,95.09
2019-02-16T03:54:02.257Z,94.99
2019-02-16T03:55:01.439Z,95.20
2019-02-16T03:56:01.426Z,95.41
2019-02-16T03:57:02.261Z,95.09
2019-02-16T03:58:01.449Z,94.42
2019-02-16T03:59:01.291Z,94.46
2019-02-16T04:00:01.256Z,94.46
2019-02-16T04:01:01.234Z,94.15
2019-02-16T04:02:01.177Z,94.01
2019-02-16T04:03:01.139Z,94.26
2019-02-16T04:04:01.758Z,94.64
2019-02-16T04:05:01.757Z,94.32
2019-02-16T04:06:01.054Z,93.84
2019-02-16T04:07:01.002Z,94.32
2019-02-16T04:08:00.960Z,94.46
2019-02-16T04:09:01.759Z,94.32
2019-02-16T04:10:01.767Z,94.32
2019-02-16T04:11:02.165Z,94.53
2019-02-16T04:12:01.907Z,94.42
2019-02-16T04:13:00.778Z,94.01
2019-02-16T04:14:00.749Z,94.32
2019-02-16T04:15:00.698Z,94.32
2019-02-16T04:16:00.799Z,94.05
2019-02-16T04:17:00.701Z,94.42
2019-02-16T04:18:01.258Z,93.80
2019-02-16T04:19:00.555Z,94.01
2019-02-16T04:20:00.525Z,94.11
2019-02-16T04:21:00.509Z,94.01
2019-02-16T04:22:00.444Z,93.80
2019-02-16T04:23:01.259Z,93.90
2019-02-16T04:24:01.268Z,93.17
2019-02-16T04:25:00.417Z,93.23
2019-02-16T04:26:00.331Z,92.60
2019-02-16T04:27:00.263Z,92.60
2019-02-16T04:28:00.225Z,92.19
2019-02-16T04:29:00.218Z,92.50
2019-02-16T04:30:00.767Z,91.98
2019-02-16T04:31:00.154Z,91.87
2019-02-16T04:32:00.079Z,92.40
2019-02-16T04:33:00.057Z,91.87
2019-02-16T04:34:00.011Z,91.98
2019-02-16T04:34:59.975Z,91.98
2019-02-16T04:36:00.762Z,92.50
2019-02-16T04:36:59.919Z,91.87
2019-02-16T04:38:00.776Z,92.08
2019-02-16T04:38:59.820Z,91.98
2019-02-16T04:39:59.789Z,91.81
2019-02-16T04:40:59.747Z,91.81
2019-02-16T04:41:59.792Z,92.02
2019-02-16T04:43:00.262Z,92.33
2019-02-16T04:44:00.259Z,92.23
2019-02-16T04:44:59.599Z,92.38
2019-02-16T04:45:59.566Z,93.21
2019-02-16T04:46:59.800Z,92.65
2019-02-16T04:48:00.260Z,92.69
2019-02-16T04:48:59.464Z,92.48
2019-02-16T04:49:59.471Z,93.01
2019-02-16T04:51:00.261Z,92.48
2019-02-16T04:51:59.368Z,93.01
2019-02-16T04:53:01.167Z,92.85
2019-02-16T04:54:00.275Z,92.96
2019-02-16T04:54:59.235Z,92.44
2019-02-16T04:55:59.200Z,91.91
2019-02-16T04:56:59.198Z,92.33
2019-02-16T04:57:59.133Z,92.02
2019-02-16T04:58:59.093Z,91.35
2019-02-16T04:59:59.054Z,91.25
2019-02-16T05:00:59.760Z,90.41
2019-02-16T05:01:58.999Z,90.41
2019-02-16T05:02:59.763Z,89.89
2019-02-16T05:03:58.908Z,89.26
2019-02-16T05:04:58.871Z,89.32
2019-02-16T05:05:59.876Z,89.11
2019-02-16T05:06:58.819Z,88.70
2019-02-16T05:07:58.763Z,88.59
2019-02-16T05:08:58.722Z,88.55
2019-02-16T05:09:59.268Z,88.59
2019-02-16T05:10:58.661Z,87.96
2019-02-16T05:11:58.636Z,88.59
2019-02-16T05:12:59.261Z,88.28
2019-02-16T05:13:58.591Z,88.49
2019-02-16T05:14:58.507Z,88.17
2019-02-16T05:15:58.481Z,88.34
2019-02-16T05:16:58.459Z,88.80
2019-02-16T05:17:58.394Z,88.59
2019-02-16T05:18:58.362Z,88.80
2019-02-16T05:19:58.352Z,89.22
2019-02-16T05:20:58.286Z,88.28
2019-02-16T05:21:58.272Z,87.96
2019-02-16T05:22:58.764Z,87.96
2019-02-16T05:23:58.250Z,89.01
2019-02-16T05:24:58.768Z,89.01
2019-02-16T05:25:58.422Z,88.42
2019-02-16T05:26:58.088Z,88.42
2019-02-16T05:27:58.762Z,88.39
2019-02-16T05:28:57.998Z,88.42
2019-02-16T05:30:00.767Z,87.86
2019-02-16T05:30:58.005Z,87.96
2019-02-16T05:31:57.907Z,88.07
2019-02-16T05:32:57.845Z,88.17
2019-02-16T05:33:58.766Z,88.07
2019-02-16T05:34:57.775Z,87.82
2019-02-16T05:35:58.268Z,87.30
2019-02-16T05:36:57.700Z,87.19
2019-02-16T05:37:57.686Z,86.88
2019-02-16T05:38:58.279Z,86.99
2019-02-16T05:39:57.590Z,86.77
2019-02-16T05:40:57.557Z,86.92
2019-02-16T05:41:57.517Z,87.09
2019-02-16T05:42:57.792Z,86.88
2019-02-16T05:43:57.445Z,87.02
2019-02-16T05:44:57.409Z,86.92
2019-02-16T05:45:57.370Z,87.13
2019-02-16T05:46:57.347Z,87.45
2019-02-16T05:47:57.797Z,88.11
2019-02-16T05:48:57.268Z,88.21
2019-02-16T05:49:57.241Z,88.42
2019-02-16T05:50:57.196Z,88.32
2019-02-16T05:51:57.157Z,88.84
2019-02-16T05:52:57.143Z,88.53
2019-02-16T05:53:57.213Z,88.78
2019-02-16T05:54:57.060Z,88.88
2019-02-16T05:55:57.008Z,88.78
2019-02-16T05:56:57.767Z,89.09
2019-02-16T05:57:56.956Z,89.40
2019-02-16T05:58:56.900Z,89.20
2019-02-16T05:59:56.863Z,89.51
2019-02-16T06:00:56.828Z,89.86
2019-02-16T06:01:56.785Z,89.97
2019-02-16T06:02:56.780Z,89.61
2019-02-16T06:03:56.715Z,89.40
2019-02-16T06:04:56.680Z,88.99
2019-02-16T06:05:56.642Z,89.40
2019-02-16T06:06:56.606Z,89.40
2019-02-16T06:07:56.592Z,88.99
2019-02-16T06:08:56.561Z,89.51
2019-02-16T06:09:56.515Z,89.30
2019-02-16T06:10:56.460Z,89.09
2019-02-16T06:11:56.462Z,89.20
2019-02-16T06:12:56.412Z,89.09
2019-02-16T06:13:56.348Z,88.67
2019-02-16T06:14:56.310Z,88.88
2019-02-16T06:15:56.278Z,88.92
2019-02-16T06:16:56.765Z,88.92
2019-02-16T06:17:56.247Z,89.45
2019-02-16T06:18:56.191Z,89.03
2019-02-16T06:19:56.770Z,89.59
2019-02-16T06:20:56.111Z,89.48
2019-02-16T06:21:56.059Z,90.43
2019-02-16T06:23:03.921Z,90.95
2019-02-16T06:23:55.981Z,91.47
2019-02-16T06:24:55.952Z,91.02
2019-02-16T06:25:56.769Z,90.53
2019-02-16T06:26:55.872Z,90.08
2019-02-16T06:27:55.861Z,89.55
2019-02-16T06:28:56.767Z,89.65
2019-02-16T06:29:55.767Z,89.40
2019-02-16T06:30:55.917Z,88.99
2019-02-16T06:31:55.690Z,88.46
2019-02-16T06:32:56.673Z,88.74
2019-02-16T06:33:55.615Z,88.53
2019-02-16T06:34:55.580Z,88.53
2019-02-16T06:35:55.548Z,88.32
2019-02-16T06:36:55.519Z,88.01
2019-02-16T06:37:55.497Z,88.11
2019-02-16T06:38:55.432Z,88.11
2019-02-16T06:39:55.393Z,88.01
2019-02-16T06:40:55.362Z,87.80
2019-02-16T06:41:55.321Z,87.07
2019-02-16T06:42:55.320Z,87.07
2019-02-16T06:43:55.256Z,86.71
2019-02-16T06:44:56.174Z,86.54
2019-02-16T06:45:55.187Z,86.54
2019-02-16T06:46:55.140Z,86.54
2019-02-16T06:47:55.129Z,86.29
2019-02-16T06:48:55.068Z,86.29
2019-02-16T06:49:55.032Z,86.19
2019-02-16T06:50:54.995Z,86.54
2019-02-16T06:51:54.960Z,86.40
2019-02-16T06:52:54.927Z,86.51
2019-02-16T06:53:54.910Z,86.29
2019-02-16T06:54:54.854Z,86.25
2019-02-16T06:55:54.813Z,86.29
2019-02-16T06:56:54.776Z,86.29
2019-02-16T06:57:54.872Z,86.36
2019-02-16T06:58:54.724Z,86.46
2019-02-16T06:59:54.666Z,85.94
2019-02-16T07:00:55.267Z,86.05
2019-02-16T07:01:55.278Z,86.05
2019-02-16T07:02:54.557Z,85.94
2019-02-16T07:03:54.550Z,86.25
2019-02-16T07:04:54.490Z,85.94
2019-02-16T07:05:55.272Z,86.05
2019-02-16T07:06:54.413Z,86.15
2019-02-16T07:07:54.379Z,85.27
2019-02-16T07:08:54.803Z,85.21
2019-02-16T07:09:54.301Z,84.65
2019-02-16T07:10:55.216Z,84.89
2019-02-16T07:11:54.236Z,85.00
2019-02-16T07:12:54.771Z,84.89
2019-02-16T07:13:54.311Z,84.96
2019-02-16T07:14:54.773Z,84.23
2019-02-16T07:15:54.787Z,84.44
2019-02-16T07:16:54.056Z,84.75
2019-02-16T07:17:54.040Z,84.55
2019-02-16T07:18:54.307Z,84.86
2019-02-16T07:19:53.941Z,84.02
2019-02-16T07:20:53.907Z,84.44
2019-02-16T07:21:53.872Z,83.98
2019-02-16T07:22:53.886Z,83.57
2019-02-16T07:23:53.861Z,83.47
2019-02-16T07:24:54.275Z,82.80
2019-02-16T07:25:53.731Z,83.04
2019-02-16T07:26:53.687Z,83.15
2019-02-16T07:27:53.704Z,83.22
2019-02-16T07:28:53.646Z,82.80
2019-02-16T07:29:53.584Z,82.59
2019-02-16T07:30:53.553Z,81.96
2019-02-16T07:31:53.520Z,81.62
2019-02-16T07:32:53.475Z,81.30
2019-02-16T07:33:53.477Z,81.62
2019-02-16T07:34:53.401Z,81.05
2019-02-16T07:35:53.368Z,80.54
2019-02-16T07:36:53.337Z,80.43
2019-02-16T07:37:53.307Z,79.91
2019-02-16T07:38:53.300Z,79.46
2019-02-16T07:39:53.223Z,79.46
2019-02-16T07:40:53.188Z,78.59
2019-02-16T07:41:53.158Z,78.94
2019-02-16T07:42:53.134Z,78.28
2019-02-16T07:43:53.136Z,78.49
2019-02-16T07:44:53.053Z,78.07
2019-02-16T07:45:53.772Z,78.07
2019-02-16T07:46:52.974Z,77.86
2019-02-16T07:47:53.778Z,78.17
2019-02-16T07:48:52.918Z,77.72
2019-02-16T07:49:53.304Z,77.30
2019-02-16T07:50:52.837Z,77.40
2019-02-16T07:51:52.800Z,77.09
2019-02-16T07:52:53.280Z,77.16
2019-02-16T07:53:52.730Z,76.43
2019-02-16T07:54:52.713Z,75.85
2019-02-16T07:55:52.666Z,75.78
2019-02-16T07:56:53.277Z,75.54
2019-02-16T07:57:52.588Z,74.49
2019-02-16T07:58:52.556Z,74.53
2019-02-16T07:59:52.810Z,75.22
2019-02-16T08:00:52.485Z,75.43
2019-02-16T08:01:52.448Z,74.49
2019-02-16T08:02:52.413Z,73.74
2019-02-16T08:03:52.376Z,74.46
2019-02-16T08:04:52.363Z,74.26
2019-02-16T08:05:52.316Z,73.28
2019-02-16T08:06:52.272Z,73.28
2019-02-16T08:07:52.242Z,73.39
2019-02-16T08:08:52.204Z,72.63
2019-02-16T08:09:52.196Z,72.25
2019-02-16T08:10:52.136Z,72.22
2019-02-16T08:11:52.105Z,71.66
2019-02-16T08:12:52.062Z,71.87
2019-02-16T08:13:52.032Z,71.77
2019-02-16T08:14:51.996Z,70.90
2019-02-16T08:15:51.986Z,70.70
2019-02-16T08:16:51.930Z,71.01
2019-02-16T08:17:51.893Z,70.59
2019-02-16T08:18:51.858Z,70.83
2019-02-16T08:19:51.831Z,70.70
2019-02-16T08:20:51.811Z,70.70
2019-02-16T08:21:51.754Z,70.46
2019-02-16T08:22:52.681Z,70.15
2019-02-16T08:23:51.689Z,70.04
2019-02-16T08:24:51.671Z,69.84
2019-02-16T08:25:51.642Z,69.94
2019-02-16T08:26:51.595Z,69.42
2019-02-16T08:27:51.550Z,70.63
2019-02-16T08:28:51.515Z,70.42
2019-02-16T08:29:51.482Z,70.42
2019-02-16T08:30:51.472Z,70.32
2019-02-16T08:31:51.412Z,69.67
2019-02-16T08:32:51.379Z,68.84
2019-02-16T08:33:51.348Z,69.74
2019-02-16T08:34:51.362Z,69.43
2019-02-16T08:35:51.300Z,69.15
2019-02-16T08:36:51.246Z,69.43
2019-02-16T08:37:51.208Z,67.77
2019-02-16T08:38:51.176Z,66.91
2019-02-16T08:39:51.146Z,67.12
2019-02-16T08:40:51.155Z,69.19
2019-02-16T08:41:51.075Z,69.19
2019-02-16T08:42:51.041Z,67.85
2019-02-16T08:43:51.008Z,66.78
2019-02-16T08:44:50.975Z,66.67
2019-02-16T08:45:50.940Z,67.91
2019-02-16T08:46:50.930Z,66.44
2019-02-16T08:47:50.872Z,64.89
2019-02-16T08:48:50.840Z,64.96
2019-02-16T08:49:50.818Z,64.65
2019-02-16T08:50:50.776Z,63.31
2019-02-16T08:51:50.772Z,63.39
2019-02-16T08:52:50.732Z,63.69
2019-02-16T08:53:52.184Z,62.66
2019-02-16T08:54:50.692Z,61.29
2019-02-16T08:55:50.607Z,61.40
2019-02-16T08:56:50.594Z,61.08
2019-02-16T08:57:50.542Z,60.57
2019-02-16T08:59:50.487Z,59.17
2019-02-16T09:00:50.445Z,59.17
2019-02-16T09:01:55.688Z,59.58
2019-02-16T09:02:50.378Z,60.59
2019-02-16T09:03:50.346Z,58.84
2019-02-16T09:04:50.309Z,58.53
2019-02-16T09:05:50.279Z,58.22
2019-02-16T09:06:50.244Z,58.42
2019-02-16T09:07:50.240Z,58.53
2019-02-16T09:08:50.193Z,58.63
2019-02-16T09:09:50.173Z,58.01
2019-02-16T09:10:50.117Z,58.09
2019-02-16T09:11:50.084Z,57.47
2019-02-16T09:12:50.081Z,56.85
2019-02-16T09:13:52.783Z,56.75
2019-02-16T09:14:49.984Z,58.29
2019-02-16T09:15:50.782Z,57.24
2019-02-16T09:16:49.919Z,56.10
2019-02-16T09:17:49.915Z,56.31
2019-02-16T09:18:50.785Z,55.28
2019-02-16T09:19:49.825Z,55.77
2019-02-16T09:20:49.791Z,55.77
2019-02-16T09:21:49.765Z,57.31
2019-02-16T09:22:49.803Z,54.94
2019-02-16T09:23:58.664Z,56.57
2019-02-16T09:24:49.662Z,55.54
2019-02-16T09:25:49.631Z,56.59
2019-02-16T09:26:49.603Z,55.43
2019-02-16T09:27:49.576Z,55.33
2019-02-16T09:28:49.567Z,54.92
2019-02-16T09:29:49.508Z,55.51
2019-02-16T09:30:49.470Z,54.90
2019-02-16T09:31:49.474Z,54.90
2019-02-16T09:32:49.427Z,53.87
2019-02-16T09:33:49.400Z,54.79
2019-02-16T09:34:49.344Z,54.90
2019-02-16T09:35:49.311Z,54.79
2019-02-16T09:36:49.282Z,54.46
2019-02-16T09:37:49.250Z,54.15
2019-02-16T09:38:49.241Z,52.81
2019-02-16T09:39:49.187Z,54.15
2019-02-16T09:40:49.152Z,54.15
2019-02-16T09:41:49.147Z,53.74
2019-02-16T09:42:49.088Z,52.61
2019-02-16T09:43:49.083Z,51.99
2019-02-16T09:44:49.039Z,53.61
2019-02-16T09:45:49.782Z,52.28
2019-02-16T09:46:48.966Z,52.38
2019-02-16T09:47:48.938Z,52.89
2019-02-16T09:48:49.691Z,52.59
2019-02-16T09:49:49.316Z,51.84
2019-02-16T09:50:48.849Z,51.74
2019-02-16T09:51:48.856Z,51.53
2019-02-16T09:52:48.775Z,51.02
2019-02-16T09:53:48.746Z,50.90
2019-02-16T09:54:48.739Z,51.41
2019-02-16T09:55:48.684Z,52.15
2019-02-16T09:56:48.687Z,52.64
2019-02-16T09:57:48.623Z,51.20
2019-02-16T09:58:48.600Z,49.66
2019-02-16T09:59:48.583Z,50.05
2019-02-16T10:00:48.527Z,50.26
2019-02-16T10:01:48.549Z,50.67
2019-02-16T10:02:48.466Z,50.97
2019-02-16T10:03:48.441Z,50.26
2019-02-16T10:04:48.429Z,49.95
2019-02-16T10:05:48.381Z,50.26
2019-02-16T10:06:48.346Z,49.74
2019-02-16T10:07:48.308Z,49.02
2019-02-16T10:08:48.291Z,48.72
2019-02-16T10:09:48.278Z,49.21
2019-02-16T10:10:48.221Z,49.00
2019-02-16T10:11:48.185Z,49.41
2019-02-16T10:12:48.159Z,48.90
2019-02-16T10:13:48.127Z,47.88
2019-02-16T10:14:48.324Z,47.85
2019-02-16T10:15:48.063Z,49.29
2019-02-16T10:16:48.038Z,48.14
2019-02-16T10:17:48.007Z,47.63
2019-02-16T10:18:47.973Z,47.93
2019-02-16T10:19:47.941Z,47.63
2019-02-16T10:20:47.940Z,47.52
2019-02-16T10:21:47.880Z,47.22
2019-02-16T10:22:47.849Z,46.99
2019-02-16T10:23:47.818Z,47.50
2019-02-16T10:24:47.837Z,47.50
2019-02-16T10:25:47.791Z,47.81
2019-02-16T10:26:47.728Z,46.37
2019-02-16T10:27:47.710Z,46.17
2019-02-16T10:28:47.664Z,45.45
2019-02-16T10:29:47.641Z,46.35
2019-02-16T10:30:47.652Z,45.64
2019-02-16T10:31:47.602Z,45.23
2019-02-16T10:32:47.550Z,46.15
2019-02-16T10:33:47.516Z,45.33
2019-02-16T10:34:47.507Z,45.64
2019-02-16T10:35:47.479Z,45.74
2019-02-16T10:36:47.430Z,45.23
2019-02-16T10:37:47.396Z,45.33
2019-02-16T10:38:47.386Z,44.71
2019-02-16T10:39:47.335Z,45.74
2019-02-16T10:40:47.345Z,45.84
2019-02-16T10:41:47.273Z,46.23
2019-02-16T10:42:47.242Z,45.41
2019-02-16T10:43:47.215Z,45.41
2019-02-16T10:44:47.183Z,45.70
2019-02-16T10:45:47.152Z,45.39
2019-02-16T10:46:47.148Z,45.39
2019-02-16T10:47:47.105Z,44.17
2019-02-16T10:48:47.072Z,43.55
2019-02-16T10:49:47.036Z,43.14
2019-02-16T10:50:47.005Z,42.81
2019-02-16T10:51:47.007Z,44.14
2019-02-16T10:52:46.962Z,43.53
2019-02-16T10:53:46.916Z,43.84
2019-02-16T10:54:46.886Z,43.43
2019-02-16T10:55:46.855Z,43.71
2019-02-16T10:56:46.890Z,44.12
2019-02-16T10:57:46.795Z,42.49
2019-02-16T10:58:46.765Z,42.57
2019-02-16T10:59:46.735Z,43.29
2019-02-16T11:00:46.710Z,42.97
2019-02-16T11:01:46.678Z,42.16
2019-02-16T11:02:46.671Z,41.85
2019-02-16T11:03:46.620Z,42.14
2019-02-16T11:04:46.589Z,42.85
2019-02-16T11:05:46.594Z,42.24
2019-02-16T11:06:46.562Z,41.82
2019-02-16T11:07:46.526Z,40.92
2019-02-16T11:08:46.502Z,40.51
2019-02-16T11:09:46.441Z,40.51
2019-02-16T11:10:46.411Z,41.41
2019-02-16T11:11:46.385Z,40.69
2019-02-16T11:12:46.378Z,41.10
2019-02-16T11:13:46.332Z,40.90
2019-02-16T11:14:46.799Z,40.69
2019-02-16T11:15:46.810Z,40.28
2019-02-16T11:16:46.802Z,40.37
2019-02-16T11:17:46.234Z,40.26
2019-02-16T11:18:46.191Z,42.21
2019-02-16T11:19:46.156Z,40.67
2019-02-16T11:20:46.117Z,40.86
2019-02-16T11:21:46.088Z,39.94
2019-02-16T11:22:46.095Z,40.14
2019-02-16T11:23:46.033Z,40.05
2019-02-16T11:24:46.009Z,41.06
2019-02-16T11:25:45.973Z,39.64
2019-02-16T11:26:45.946Z,40.12
2019-02-16T11:27:46.349Z,39.92
2019-02-16T11:28:46.007Z,39.01
2019-02-16T11:29:45.860Z,39.92
2019-02-16T11:30:45.830Z,40.84
2019-02-16T11:31:45.797Z,39.42
2019-02-16T11:32:46.301Z,39.92
2019-02-16T11:33:45.770Z,39.42
2019-02-16T11:34:45.718Z,39.82
2019-02-16T11:35:45.683Z,40.11
2019-02-16T11:36:46.309Z,40.03
2019-02-16T11:37:45.635Z,39.72
2019-02-16T11:38:45.698Z,39.50
2019-02-16T11:39:45.567Z,39.29
2019-02-16T11:40:45.547Z,39.19
2019-02-16T11:41:46.307Z,39.40
2019-02-16T11:42:46.348Z,39.40
2019-02-16T11:43:45.482Z,39.58
2019-02-16T11:44:45.431Z,38.15
2019-02-16T11:45:46.308Z,38.15
2019-02-16T11:46:45.372Z,37.54
2019-02-16T11:47:45.360Z,37.54
2019-02-16T11:48:45.530Z,37.34
2019-02-16T11:49:45.283Z,36.41
2019-02-16T11:50:45.266Z,36.92
2019-02-16T11:51:45.230Z,36.31
2019-02-16T11:52:45.808Z,36.00
2019-02-16T11:53:45.202Z,37.43
2019-02-16T11:54:45.887Z,37.23
2019-02-16T11:55:45.118Z,36.51
2019-02-16T11:56:45.811Z,37.53
2019-02-16T11:57:45.057Z,37.23
2019-02-16T11:58:45.058Z,37.63
2019-02-16T11:59:45.001Z,37.63
2019-02-16T12:00:44.981Z,37.02
2019-02-16T12:01:44.943Z,36.71
2019-02-16T12:02:44.918Z,37.92
2019-02-16T12:03:44.888Z,37.41
2019-02-16T12:04:44.879Z,37.21
2019-02-16T12:05:44.830Z,37.19
2019-02-16T12:06:45.315Z,36.60
2019-02-16T12:07:44.774Z,35.97
2019-02-16T12:08:44.746Z,37.39
2019-02-16T12:09:44.742Z,37.59
2019-02-16T12:10:44.701Z,35.27
2019-02-16T12:11:44.658Z,35.27
2019-02-16T12:12:44.640Z,35.27
2019-02-16T12:13:44.608Z,35.66
2019-02-16T12:14:44.659Z,34.95
2019-02-16T12:15:44.549Z,35.86
2019-02-16T12:16:44.525Z,35.66
2019-02-16T12:17:44.492Z,35.86
2019-02-16T12:18:44.485Z,36.27
2019-02-16T12:19:44.473Z,35.46
2019-02-16T12:20:45.218Z,36.38
2019-02-16T12:21:44.385Z,35.86
2019-02-16T12:22:44.357Z,36.27
2019-02-16T12:23:44.325Z,36.07
2019-02-16T12:24:44.323Z,36.38
2019-02-16T12:25:44.285Z,35.46
2019-02-16T12:26:44.244Z,36.47
2019-02-16T12:27:44.223Z,35.97
2019-02-16T12:28:44.183Z,36.58
2019-02-16T12:29:44.179Z,36.38
2019-02-16T12:30:44.821Z,35.77
2019-02-16T12:31:44.103Z,35.77
2019-02-16T12:32:44.087Z,36.78
2019-02-16T12:33:44.042Z,36.58
2019-02-16T12:34:44.352Z,36.99
2019-02-16T12:35:43.988Z,36.38
2019-02-16T12:36:43.965Z,36.66
2019-02-16T12:37:44.815Z,36.38
2019-02-16T12:38:43.958Z,35.56
2019-02-16T12:39:43.879Z,35.66
2019-02-16T12:40:44.368Z,35.34
2019-02-16T12:41:43.955Z,36.07
2019-02-16T12:42:44.321Z,36.25
2019-02-16T12:43:44.317Z,35.24
2019-02-16T12:44:43.736Z,35.63
2019-02-16T12:45:50.853Z,35.83
2019-02-16T12:46:43.681Z,35.24
2019-02-16T12:47:43.793Z,35.64
2019-02-16T12:48:43.627Z,34.41
2019-02-16T12:49:43.604Z,35.33
2019-02-16T12:50:43.596Z,35.33
2019-02-16T12:51:43.546Z,34.72
2019-02-16T12:52:43.530Z,34.72